KPSM/PSM METAR and TAF weather

Enter ICAO airport designator
Station Type Date Time Source
KPSM METAR 2020/12/05 04:56 UTC NOAA

KPSM 050456Z 00000KT 10SM FEW085 OVC120 05/00 A2988 RMK AO2A SLP121 T00501004 401240028


Station Type Date Time Source
KPSM Decoded METAR 2020/12/05 04:56 UTC NOAA

Pease Air Force Base / Portsmouth, NH, United States (KPSM) 43-05N 070-49W
Dec 04, 2020 - 11:56 PM EST / 2020.12.05 0456 UTC
Wind: Calm:0
Visibility: 10 mile(s):0
Sky conditions: overcast
Temperature: 41.0 F (5.0 C)
Dew Point: 31.3 F (-0.4 C)
Relative Humidity: 68%
Pressure (altimeter): 29.88 in. Hg (1011 hPa)
ob: KPSM 050456Z 00000KT 10SM FEW085 OVC120 05/00 A2988 RMK AO2A SLP121 T00501004 401240028
cycle: 5

Station Type Date Time Source
KPSM TAF 2020/12/04 18:22 UTC NOAA

TAF KPSM 041720Z 0418/0518 20008KT P6SM BKN090 BKN250
FM050800 23003KT 4SM BR OVC020
FM051000 02003KT 4SM -RA BR OVC009
FM051200 02004KT 4SM -RA BR OVC003
FM051500 01012G18KT 1/2SM -RA FG OVC001

Example: see airport list